Hersman, Illinois
Current Conditions -  °F | °C
As of 7:55 PM on Sunday 21 Dec 2014 (Local Time) from KPPQ Reporting Station
Light Rain Light Rain  
Wind Chill: 34°   Ceiling: 3300
Heat Index: 40°   Visibility: 10mi
Dew Point: 35°   Wind: 9mph
Humidity: 81%   Direction: 140°SE
Pressure: 29.97"   Gusts: NA
Location:  39.9985°N, 90.6925°W
Report Text: KPPQ 220155Z AUTO 14008KT 10SM -RA BKN033 BKN045 OVC060 05/02 A2997 RMK AO2 T00450015
Loading
Personal Weather Stations






























Interactive Weather Map New forecast layout! Learn more

10-Day Weather Forecast

Advertisements
Track Severe Weather on mobile